Saturday, February 13, 2016, 10:46 PM EST

KMUI, Muir Army Air Field / Indiantown

Location: Jonestown, PA, United States Lat: 40.433
Local Time: 10:46 PM EST ( 3:46 GMT) Lon: -76.567
Time Zone: US/Eastern Elev: 488 ft

Show me the last for .
Show Decoded

2016-02-13 21:58 METAR KMUI 140258Z AUTO 25007KT 10SM CLR M12/M19 A3035 RMK AO2 SLP290 T11221192
                 52010 $ =
2016-02-13 20:58 METAR KMUI 140158Z AUTO 29015G22KT 10SM FEW047 M12/M21 A3034 RMK AO2 PK WND
                 26026/22 SLP287 T11171215 $ =
2016-02-13 19:58 METAR KMUI 140058Z AUTO 27014G26KT 10SM CLR M11/M23 A3032 RMK AO2 SLP280
                 T11131234 $ =
2016-02-13 18:58 METAR KMUI 132358Z AUTO VRB05KT 10SM FEW047 M11/M21 A3031 RMK AO2 SLP277 60000
                 T11151214 11094 21116 52024 $ =
2016-02-13 17:58 METAR KMUI 132258Z AUTO 31007KT 270V350 10SM CLR M11/M23 A3028 RMK AO2 SLP266
                 T11131230 $ =
2016-02-13 16:58 METAR KMUI 132158Z AUTO VRB06G20KT 10SM FEW029 M11/M23 A3026 RMK AO2 PK WND
                 26031/08 SNE00 SLP259 P0000 T11081229 $ =
2016-02-13 16:14 METAR KMUI 132114Z AUTO 30011G31KT 10SM SCT060 M11/M23 A3025 RMK AO2 WSHFT 01
                 SNE00 =
2016-02-13 16:00 METAR KMUI 132100Z AUTO 27012G23KT 250V310 10SM BKN060 M11/M23 A3024 RMK AO2
                 SNE00 $ =
2016-02-13 15:58 METAR KMUI 132058Z AUTO 28008G25KT 240V330 10SM -SN BKN060 M11/M24 A3024 RMK AO2
                 PK WND 28028/38 SNB51 SLP252 P0000 60000 T11061236 52019 $ =
2016-02-13 15:51 METAR KMUI 132051Z AUTO 29011G25KT 270V340 10SM -SN BKN060 M11/M23 A3024 RMK AO2
                 SNB51 =
2016-02-13 14:58 METAR KMUI 131958Z AUTO 29016G22KT 250V320 10SM BKN060 M10/M23 A3022 RMK AO2 PK
                 WND 27029/41 SLP245 T11031234 $ =
2016-02-13 14:28 METAR KMUI 131928Z AUTO 32012G27KT 270V010 10SM FEW060 M10/M23 A3021 RMK AO2
                 WSHFT 18 =
2016-02-13 13:58 METAR KMUI 131858Z AUTO 29015G26KT 10SM FEW050 M11/M22 A3020 RMK AO2 PK WND
                 27033/12 SNB02E12SNB25E34 SLP239 P0000 T11091219 $ =
2016-02-13 13:38 METAR KMUI 131838Z AUTO 30015G32KT 10SM FEW040 SCT050 M10/M22 A3020 RMK AO2
                 WSHFT 36 SNB02E12SNB25E34 $ =
2016-02-13 13:36 METAR KMUI 131836Z AUTO 34018G32KT 300V010 10SM FEW039 SCT050 BKN190 M10/M22
                 A3019 RMK AO2 WSHFT 34 SNB02E12SNB25E34 $ =
2016-02-13 13:34 METAR KMUI 131834Z AUTO 30019G32KT 10SM FEW039 BKN050 BKN190 M10/M22 A3020 RMK
                 AO2 SNB02E12SNB25E34 =
2016-02-13 13:28 METAR KMUI 131828Z AUTO 32014G33KT 280V360 10SM -SN FEW011 SCT039 SCT055 BKN130
                 BKN190 BKN210 M10/M21 A3019 RMK AO2 WSHFT 15 SNB02E12SNB25 $ =
2016-02-13 13:25 METAR KMUI 131825Z AUTO 31014G33KT 10SM -SN FEW016 SCT055 SCT130 BKN190 BKN210
                 M10/M21 A3019 RMK AO2 SNB02E12SNB25 =
2016-02-13 13:12 METAR KMUI 131812Z AUTO 30014G33KT 9SM FEW034 SCT190 SCT210 M10/M22 A3019 RMK
                 AO2 SNB02E12 =
2016-02-13 13:06 METAR KMUI 131806Z AUTO 28015G30KT 10SM -SN FEW033 M10/M22 A3018 RMK AO2 WSHFT
                 03 SNB02 $ =
2016-02-13 13:03 METAR KMUI 131803Z AUTO 32014G31KT 10SM -SN FEW140 M09/M22 A3019 RMK AO2 WSHFT
                 1759 SNB02 =
2016-02-13 13:02 METAR KMUI 131802Z AUTO 30017G31KT 10SM -SN FEW140 M09/M22 A3019 RMK AO2 SNB02 =
2016-02-13 12:58 METAR KMUI 131758Z AUTO 28017G31KT 260V320 10SM FEW140 M09/M23 A3018 RMK AO2 PK
                 WND 25034/38 SNE04DZB40E50SNB50E51 SLP232 P0000 60000 T10941227 11090 21099
                 51014 $ =
2016-02-13 12:51 METAR KMUI 131751Z AUTO 27023G30KT 10SM FEW060 SCT190 M09/M23 A3018 RMK AO2
                 SNE04DZB40E50SNB50E51 =
2016-02-13 12:40 METAR KMUI 131740Z AUTO 28020G34KT 9SM -DZ FEW050 SCT160 M09/M23 A3018 RMK AO2
                 SNE04DZB40 =
2016-02-13 12:04 METAR KMUI 131704Z AUTO 28022G29KT 9SM CLR M09/M22 A3017 RMK AO2 SNE04 =
2016-02-13 11:58 METAR KMUI 131658Z AUTO 30011G41KT 250V330 7SM BLSN CLR M09/M23 A3017 RMK AO2 PK
                 WND 28041/51 SNE1558DZB1558E03SNB03E04DZB04E06SNB06E15DZB15E55SNB55 SLP229 P0000
                 T10951230 $ =
2016-02-13 11:53 METAR KMUI 131653Z AUTO 29022G41KT 260V330 6SM -DZ CLR M09/M23 A3017 RMK AO2
                 SNE1558DZB1558E03SNB03E04DZB04E06SNB06E15DZB15 =
2016-02-13 11:48 METAR KMUI 131648Z AUTO 28017G33KT 7SM CLR M09/M23 A3017 RMK AO2
                 SNE1558DZB1558E03SNB03E04DZB04E06SNB06E15DZB15 =
2016-02-13 11:46 METAR KMUI 131646Z AUTO 27024G33KT 6SM -DZ CLR M09/M23 A3017 RMK AO2
                 SNE1558DZB1558E03SNB03E04DZB04E06SNB06E15DZB15 =
2016-02-13 11:38 METAR KMUI 131638Z AUTO 29018G40KT 7SM CLR M10/M23 A3017 RMK AO2
                 SNE1558DZB1558E03SNB03E04DZB04E06SNB06E15DZB15 =
2016-02-13 11:28 METAR KMUI 131628Z AUTO 27027G37KT 6SM -DZ CLR M10/M22 A3016 RMK AO2
                 SNE1558DZB1558E03SNB03E04DZB04E06SNB06E15DZB15 =
2016-02-13 11:17 METAR KMUI 131617Z AUTO 29018G33KT 250V330 9SM CLR M10/M22 A3017 RMK AO2
                 SNE1558DZB1558E03SNB03E04DZB04E06SNB06E15DZB15 =
2016-02-13 10:58 METAR KMUI 131558Z AUTO 30017G26KT 260V340 10SM -SN FEW036 SCT046 M09/M20 A3017
                 RMK AO2 PK WND 29026/51 SNB11E12SNB17E18SNB21E31SNB39 PRESRR SLP228 P0000
                 T10941205 $ =
2016-02-13 10:44 METAR KMUI 131544Z AUTO 28014G23KT 10SM -SN FEW034 BKN043 M09/M20 A3015 RMK AO2
                 WSHFT 42 SNB11E12SNB17E18SNB21E31SNB39 $ =
2016-02-13 10:42 METAR KMUI 131542Z AUTO 32012G23KT 10SM -SN FEW023 BKN041 M09/M20 A3015 RMK AO2
                 WSHFT 38 SNB11E12SNB17E18SNB21E31SNB39 $ =
2016-02-13 10:39 METAR KMUI 131539Z AUTO 28016G23KT 10SM -SN FEW023 BKN041 M09/M20 A3015 RMK AO2
                 SNB11E12SNB17E18SNB21E31SNB39 =
2016-02-13 10:35 METAR KMUI 131535Z AUTO 29011G20KT 240V330 10SM FEW023 BKN043 M09/M19 A3015 RMK
                 AO2 WSHFT 31 SNB11E12SNB17E18SNB21E31 $ =
2016-02-13 10:31 METAR KMUI 131531Z AUTO 33009KT 290V010 10SM FEW022 BKN040 BKN047 M09/M19 A3015
                 RMK AO2 SNB11E12SNB17E18SNB21E31 =
2016-02-13 10:21 METAR KMUI 131521Z AUTO 28009G25KT 10SM -SN FEW022 BKN040 BKN140 M09/M18 A3015
                 RMK AO2 SNB11E12SNB17E18SNB21 $ =
2016-02-13 10:18 METAR KMUI 131518Z AUTO 26012G20KT 10SM SCT023 SCT034 BKN043 BKN140 BKN180
                 M09/M18 A3014 RMK AO2 SNB11E12SNB17E18 $ =
2016-02-13 10:17 METAR KMUI 131517Z AUTO 28008G20KT 250V340 10SM -SN SCT023 SCT034 BKN044 BKN140
                 BKN180 M09/M18 A3015 RMK AO2 SNB11E12SNB17 $ =
2016-02-13 10:12 METAR KMUI 131512Z AUTO 28012G21KT 10SM FEW024 SCT045 SCT140 BKN180 BKN200
                 M09/M19 A3014 RMK AO2 SNB11E12 $ =
2016-02-13 10:11 METAR KMUI 131511Z AUTO 28011G21KT 250V310 10SM -SN FEW024 SCT033 SCT043 SCT180
                 BKN200 M09/M19 A3014 RMK AO2 SNB11 =
2016-02-13 09:58 METAR KMUI 131458Z AUTO 30013G25KT 10SM FEW036 M09/M18 A3014 RMK AO2 PK WND
                 27029/08 SNE06DZB06E09SNB09E10DZB10E20DZB22E32DZB44E52 SLP218 P0000 60000
                 T10911185 52025 $ =
2016-02-13 09:52 METAR KMUI 131452Z AUTO 28012G27KT 250V340 10SM FEW026 M09/M19 A3014 RMK AO2
                 SNE06DZB06E09SNB09E10DZB10E20DZB22E32DZB44E52 =
2016-02-13 09:44 METAR KMUI 131444Z AUTO 30016G29KT 9SM -DZ FEW033 M09/M19 A3013 RMK AO2
                 SNE06DZB06E09SNB09E10DZB10E20DZB22E32DZB44 =
2016-02-13 09:32 METAR KMUI 131432Z AUTO 27014G25KT 9SM FEW025 SCT036 M10/M19 A3013 RMK AO2
                 SNE06DZB06E09SNB09E10DZB10E20DZB22E32 =
2016-02-13 09:22 METAR KMUI 131422Z AUTO 27018G27KT 9SM -DZ FEW028 SCT036 SCT200 M10/M19 A3013
                 RMK AO2 SNE06DZB06E09SNB09E10DZB10E20DZB22 $ =
2016-02-13 09:20 METAR KMUI 131420Z AUTO 27020G27KT 9SM FEW030 SCT038 SCT200 M10/M19 A3012 RMK
                 AO2 SNE06DZB06E09SNB09E10DZB10E20 =
2016-02-13 08:58 METAR KMUI 131358Z AUTO 27022G27KT 7SM -SN SCT021 SCT030 BKN038 M09/M18 A3011
                 RMK AO2 SNB13E51DZB51E53SNB53E54SNB56 SLP208 P0000 T10921177 $ =
2016-02-13 08:56 METAR KMUI 131356Z AUTO 27020G27KT 7SM -SN SCT021 SCT030 BKN038 M09/M18 A3011
                 RMK AO2 SNB13E51DZB51E53SNB53E54SNB56 $ =
2016-02-13 08:54 METAR KMUI 131354Z AUTO 28017G24KT 10SM SCT020 SCT038 M09/M18 A3011 RMK AO2
                 SNB13E51DZB51E53SNB53E54 =
2016-02-13 08:47 METAR KMUI 131347Z AUTO 30013G26KT 8SM -SN SCT020 M09/M18 A3011 RMK AO2 SNB13 =
2016-02-13 08:35 METAR KMUI 131335Z AUTO 28011G19KT 3SM -SN BKN020 BKN028 M10/M16 A3011 RMK AO2
                 SNB13 CIG 018V030 $ =
2016-02-13 08:31 METAR KMUI 131331Z AUTO 29010G19KT 2 1/2SM -SN BKN020 BKN028 BKN035 M10/M16
                 A3010 RMK AO2 VIS 2 1/2V8 SNB13 CIG 018V035 $ =
2016-02-13 08:29 METAR KMUI 131329Z AUTO 30012G19KT 2 1/2SM -SN BKN018 BKN028 BKN035 M10/M16
                 A3010 RMK AO2 VIS 2 1/2V8 SNB13 CIG 018V036 $ =
2016-02-13 08:27 METAR KMUI 131327Z AUTO 30013G19KT 280V340 3SM -SN SCT019 BKN030 BKN037 M09/M16
                 A3010 RMK AO2 SNB13 $ =
2016-02-13 08:25 METAR KMUI 131325Z AUTO 30014G18KT 260V330 5SM -SN SCT019 BKN028 BKN035 M09/M16
                 A3010 RMK AO2 SNB13 CIG 028V036 BKN028 V SCT $ =
2016-02-13 08:13 METAR KMUI 131313Z AUTO 27018G24KT 8SM -SN SCT024 BKN034 M09/M18 A3009 RMK AO2
                 SNB13 =
2016-02-13 07:58 METAR KMUI 131258Z AUTO 29012G19KT 10SM CLR M09/M19 A3009 RMK AO2 SLP201
                 T10911194 $ =
2016-02-13 06:58 METAR KMUI 131158Z AUTO 29010G21KT 240V320 10SM CLR M09/M20 A3006 RMK AO2
                 DZB10E13 SLP191 P0000 60000 T10891205 11069 21098 52041 $ =
2016-02-13 05:58 METAR KMUI 131058Z AUTO 29013G20KT 10SM FEW027 M08/M16 A3002 RMK AO2 SNB08E33
                 SLP177 P0000 T10801158 $ =
2016-02-13 05:33 METAR KMUI 131033Z AUTO 28009G18KT 10SM SCT034 BKN043 M08/M14 A3001 RMK AO2
                 SNB08E33 =
2016-02-13 05:22 METAR KMUI 131022Z AUTO 31013G21KT 9SM -SN BKN037 M07/M14 A3000 RMK AO2 WSHFT 11
                 SNB08 =
2016-02-13 05:08 METAR KMUI 131008Z AUTO 29009G23KT 240V320 10SM -SN BKN039 BKN049 M07/M14 A2999
                 RMK AO2 SNB08 =
2016-02-13 04:58 METAR KMUI 130958Z AUTO 27016G25KT 10SM SCT045 BKN050 M07/M14 A2998 RMK AO2 PK
                 WND 26027/19 DZB01E11SNB11E18SNB29E40 SLP163 P0000 T10731143 $ =
2016-02-13 04:40 METAR KMUI 130940Z AUTO 28011G20KT 250V320 9SM SCT046 SCT055 M07/M15 A2997 RMK
                 AO2 DZB01E11SNB11E18SNB29E40 =
2016-02-13 04:29 METAR KMUI 130929Z AUTO 27011G27KT 230V300 8SM -SN FEW049 M07/M15 A2996 RMK AO2
                 DZB01E11SNB11E18SNB29 =
2016-02-13 03:58 METAR KMUI 130858Z AUTO 28014KT 10SM CLR M07/M14 A2994 RMK AO2
                 SNB35E42DZB42E43SNB43E44DZB44E45SNB45E52 SLP149 P0000 60000 T10701143 53006 $ =
2016-02-13 02:58 METAR KMUI 130758Z AUTO 27010KT 10SM CLR M07/M12 A2992 RMK AO2 SLP142 T10741119
                 $ =
2016-02-13 01:58 METAR KMUI 130658Z AUTO 27002KT 10SM SCT041 M10/M10 A2992 RMK AO2 SLP143
                 T10971098 $ =
2016-02-13 00:58 METAR KMUI 130558Z AUTO 27002KT 10SM FEW030 M08/M08 A2992 RMK AO2 SNB06E22
                 SLP143 P0000 60000 T10831084 11072 21083 57010 $ =
2016-02-13 00:22 METAR KMUI 130522Z AUTO 26002KT 10SM OVC040 M08/M08 A2993 RMK AO2 SNB06E22 =
2016-02-13 00:06 METAR KMUI 130506Z AUTO 26002KT 9SM -SN OVC039 M08/M08 A2993 RMK AO2 SNB06 =
2016-02-12 23:58 METAR KMUI 130458Z AUTO 24001KT 10SM OVC041 M08/M08 A2993 RMK AO2 SNE00 SLP146
                 P0000 T10781080 410591180 $ =
2016-02-12 23:13 METAR KMUI 130413Z AUTO 24002KT 10SM SCT009 OVC090 M08/M08 A2994 RMK AO2 SNE00 =
2016-02-12 23:06 METAR KMUI 130406Z AUTO 23002KT 8SM SCT016 OVC090 M08/M08 A2994 RMK AO2 SNE00 $
                 =
2016-02-12 23:00 METAR KMUI 130400Z AUTO 22002KT 6SM BR BKN018 OVC095 M08/M08 A2994 RMK AO2 SNE00
                 BKN V OVC $ =
2016-02-12 22:58 METAR KMUI 130358Z AUTO 21002KT 6SM -SN BR OVC018 M07/M08 A2994 RMK AO2
                 SNE0258SNB14 CIG 018V022 SLP150 P0000 T10751077 $ =
2016-02-12 22:52 METAR KMUI 130352Z AUTO 22003KT 6SM -SN BR OVC018 M08/M08 A2994 RMK AO2
                 SNE0258SNB14 CIG 018V027 $ =

Support USWX by starting your Amazon purchase here.